sensor_id;sensor_type;location;lat;lon;timestamp;P1;durP1;ratioP1;P2;durP2;ratioP2
55465;SDS011;41329;41.594;23.810;2023-04-24T00:01:14;8.00;;;7.40;;
55465;SDS011;41329;41.594;23.810;2023-04-24T00:03:42;7.93;;;7.43;;
55465;SDS011;41329;41.594;23.810;2023-04-24T00:06:07;8.03;;;7.53;;
55465;SDS011;41329;41.594;23.810;2023-04-24T00:08:33;8.70;;;7.90;;
55465;SDS011;41329;41.594;23.810;2023-04-24T00:11:00;8.03;;;7.23;;
55465;SDS011;41329;41.594;23.810;2023-04-24T00:13:26;7.03;;;6.60;;
55465;SDS011;41329;41.594;23.810;2023-04-24T00:15:53;8.03;;;7.37;;
55465;SDS011;41329;41.594;23.810;2023-04-24T00:18:19;7.67;;;7.17;;
55465;SDS011;41329;41.594;23.810;2023-04-24T00:20:44;6.73;;;6.33;;
55465;SDS011;41329;41.594;23.810;2023-04-24T00:23:11;7.63;;;7.07;;
55465;SDS011;41329;41.594;23.810;2023-04-24T00:25:36;7.73;;;7.23;;
55465;SDS011;41329;41.594;23.810;2023-04-24T00:28:03;6.77;;;6.37;;
55465;SDS011;41329;41.594;23.810;2023-04-24T00:30:28;7.37;;;6.87;;
55465;SDS011;41329;41.594;23.810;2023-04-24T00:32:54;7.23;;;6.83;;
55465;SDS011;41329;41.594;23.810;2023-04-24T00:35:19;6.93;;;6.53;;
55465;SDS011;41329;41.594;23.810;2023-04-24T00:37:45;7.27;;;6.87;;
55465;SDS011;41329;41.594;23.810;2023-04-24T00:40:11;7.00;;;6.53;;
55465;SDS011;41329;41.594;23.810;2023-04-24T00:42:37;6.90;;;6.40;;
55465;SDS011;41329;41.594;23.810;2023-04-24T00:45:02;6.77;;;6.33;;
55465;SDS011;41329;41.594;23.810;2023-04-24T00:47:29;6.60;;;6.17;;
55465;SDS011;41329;41.594;23.810;2023-04-24T00:49:55;6.30;;;5.90;;
55465;SDS011;41329;41.594;23.810;2023-04-24T00:52:20;6.17;;;5.87;;
55465;SDS011;41329;41.594;23.810;2023-04-24T00:54:49;8.40;;;7.70;;
55465;SDS011;41329;41.594;23.810;2023-04-24T00:57:15;7.77;;;7.17;;
55465;SDS011;41329;41.594;23.810;2023-04-24T00:59:41;8.13;;;7.67;;
55465;SDS011;41329;41.594;23.810;2023-04-24T01:02:07;8.43;;;7.93;;
55465;SDS011;41329;41.594;23.810;2023-04-24T01:04:35;8.13;;;7.53;;
55465;SDS011;41329;41.594;23.810;2023-04-24T01:07:02;8.97;;;8.37;;
55465;SDS011;41329;41.594;23.810;2023-04-24T01:09:27;9.27;;;8.60;;
55465;SDS011;41329;41.594;23.810;2023-04-24T01:11:53;7.77;;;7.37;;
55465;SDS011;41329;41.594;23.810;2023-04-24T01:14:19;9.67;;;8.87;;
55465;SDS011;41329;41.594;23.810;2023-04-24T01:16:45;8.50;;;8.00;;
55465;SDS011;41329;41.594;23.810;2023-04-24T01:19:10;10.27;;;9.57;;
55465;SDS011;41329;41.594;23.810;2023-04-24T01:21:39;8.23;;;7.83;;
55465;SDS011;41329;41.594;23.810;2023-04-24T01:24:07;9.33;;;8.53;;
55465;SDS011;41329;41.594;23.810;2023-04-24T01:26:32;9.60;;;9.10;;
55465;SDS011;41329;41.594;23.810;2023-04-24T01:28:58;11.63;;;10.97;;
55465;SDS011;41329;41.594;23.810;2023-04-24T01:31:24;10.00;;;9.20;;
55465;SDS011;41329;41.594;23.810;2023-04-24T01:33:50;10.50;;;9.70;;
55465;SDS011;41329;41.594;23.810;2023-04-24T01:36:16;10.77;;;10.10;;
55465;SDS011;41329;41.594;23.810;2023-04-24T01:38:43;10.83;;;10.03;;
55465;SDS011;41329;41.594;23.810;2023-04-24T01:41:09;10.20;;;9.30;;
55465;SDS011;41329;41.594;23.810;2023-04-24T01:43:35;10.67;;;9.67;;
55465;SDS011;41329;41.594;23.810;2023-04-24T01:46:00;9.50;;;8.83;;
55465;SDS011;41329;41.594;23.810;2023-04-24T01:48:26;9.17;;;8.57;;
55465;SDS011;41329;41.594;23.810;2023-04-24T01:50:52;9.33;;;8.73;;
55465;SDS011;41329;41.594;23.810;2023-04-24T01:53:17;8.63;;;8.13;;
55465;SDS011;41329;41.594;23.810;2023-04-24T01:55:43;8.30;;;7.80;;
55465;SDS011;41329;41.594;23.810;2023-04-24T01:58:08;7.43;;;6.93;;
55465;SDS011;41329;41.594;23.810;2023-04-24T02:00:34;7.33;;;6.87;;
55465;SDS011;41329;41.594;23.810;2023-04-24T02:02:59;6.93;;;6.40;;
55465;SDS011;41329;41.594;23.810;2023-04-24T02:05:26;7.17;;;6.77;;
55465;SDS011;41329;41.594;23.810;2023-04-24T02:07:52;6.47;;;6.07;;
55465;SDS011;41329;41.594;23.810;2023-04-24T02:10:18;5.90;;;5.60;;
55465;SDS011;41329;41.594;23.810;2023-04-24T02:12:43;6.83;;;6.30;;
55465;SDS011;41329;41.594;23.810;2023-04-24T02:15:09;7.10;;;6.70;;
55465;SDS011;41329;41.594;23.810;2023-04-24T02:17:34;6.73;;;6.20;;
55465;SDS011;41329;41.594;23.810;2023-04-24T02:20:00;8.20;;;7.63;;
55465;SDS011;41329;41.594;23.810;2023-04-24T02:22:25;7.70;;;7.20;;
55465;SDS011;41329;41.594;23.810;2023-04-24T02:24:51;8.27;;;7.77;;
55465;SDS011;41329;41.594;23.810;2023-04-24T02:27:16;8.30;;;7.80;;
55465;SDS011;41329;41.594;23.810;2023-04-24T02:29:42;8.33;;;7.83;;
55465;SDS011;41329;41.594;23.810;2023-04-24T02:32:07;8.53;;;8.03;;
55465;SDS011;41329;41.594;23.810;2023-04-24T02:34:36;9.27;;;8.67;;
55465;SDS011;41329;41.594;23.810;2023-04-24T02:37:01;10.20;;;9.40;;
55465;SDS011;41329;41.594;23.810;2023-04-24T02:39:27;10.57;;;9.97;;
55465;SDS011;41329;41.594;23.810;2023-04-24T02:41:52;10.13;;;9.53;;
55465;SDS011;41329;41.594;23.810;2023-04-24T02:44:17;10.80;;;10.20;;
55465;SDS011;41329;41.594;23.810;2023-04-24T02:46:43;10.50;;;9.90;;
55465;SDS011;41329;41.594;23.810;2023-04-24T02:49:08;9.60;;;9.00;;
55465;SDS011;41329;41.594;23.810;2023-04-24T02:51:34;9.23;;;8.57;;
55465;SDS011;41329;41.594;23.810;2023-04-24T02:53:59;8.83;;;8.13;;
55465;SDS011;41329;41.594;23.810;2023-04-24T02:56:25;7.83;;;7.33;;
55465;SDS011;41329;41.594;23.810;2023-04-24T02:58:50;8.23;;;7.63;;
55465;SDS011;41329;41.594;23.810;2023-04-24T03:01:16;7.77;;;7.33;;
55465;SDS011;41329;41.594;23.810;2023-04-24T03:03:41;8.80;;;8.10;;
55465;SDS011;41329;41.594;23.810;2023-04-24T03:06:06;8.93;;;8.43;;
55465;SDS011;41329;41.594;23.810;2023-04-24T03:08:33;8.47;;;7.97;;
55465;SDS011;41329;41.594;23.810;2023-04-24T03:10:58;8.47;;;7.97;;
55465;SDS011;41329;41.594;23.810;2023-04-24T03:13:24;10.07;;;9.37;;
55465;SDS011;41329;41.594;23.810;2023-04-24T03:15:50;9.37;;;8.67;;
55465;SDS011;41329;41.594;23.810;2023-04-24T03:18:16;8.67;;;8.07;;
55465;SDS011;41329;41.594;23.810;2023-04-24T03:20:42;8.07;;;7.60;;
55465;SDS011;41329;41.594;23.810;2023-04-24T03:23:07;8.93;;;8.33;;
55465;SDS011;41329;41.594;23.810;2023-04-24T03:25:33;8.60;;;8.10;;
55465;SDS011;41329;41.594;23.810;2023-04-24T03:27:58;8.70;;;8.20;;
55465;SDS011;41329;41.594;23.810;2023-04-24T03:30:24;8.70;;;8.20;;
55465;SDS011;41329;41.594;23.810;2023-04-24T03:32:49;8.20;;;7.70;;
55465;SDS011;41329;41.594;23.810;2023-04-24T03:35:14;9.70;;;9.10;;
55465;SDS011;41329;41.594;23.810;2023-04-24T03:37:40;10.63;;;10.00;;
55465;SDS011;41329;41.594;23.810;2023-04-24T03:40:06;61.03;;;9.47;;
55465;SDS011;41329;41.594;23.810;2023-04-24T03:42:32;37.93;;;8.33;;
55465;SDS011;41329;41.594;23.810;2023-04-24T03:44:57;9.97;;;8.87;;
55465;SDS011;41329;41.594;23.810;2023-04-24T03:47:23;77.00;;;10.00;;
55465;SDS011;41329;41.594;23.810;2023-04-24T03:49:48;13.40;;;8.10;;
55465;SDS011;41329;41.594;23.810;2023-04-24T03:52:13;8.20;;;7.80;;
55465;SDS011;41329;41.594;23.810;2023-04-24T03:54:39;8.97;;;8.47;;
55465;SDS011;41329;41.594;23.810;2023-04-24T03:57:04;10.03;;;9.23;;
55465;SDS011;41329;41.594;23.810;2023-04-24T03:59:30;11.03;;;10.10;;
55465;SDS011;41329;41.594;23.810;2023-04-24T04:01:56;13.33;;;11.37;;
55465;SDS011;41329;41.594;23.810;2023-04-24T04:04:21;15.50;;;11.37;;
55465;SDS011;41329;41.594;23.810;2023-04-24T04:06:46;12.30;;;11.60;;
55465;SDS011;41329;41.594;23.810;2023-04-24T04:09:12;17.27;;;16.13;;
55465;SDS011;41329;41.594;23.810;2023-04-24T04:11:38;17.13;;;16.03;;
55465;SDS011;41329;41.594;23.810;2023-04-24T04:14:03;16.70;;;15.23;;
55465;SDS011;41329;41.594;23.810;2023-04-24T04:16:29;16.77;;;15.67;;
55465;SDS011;41329;41.594;23.810;2023-04-24T04:18:54;17.60;;;16.50;;
55465;SDS011;41329;41.594;23.810;2023-04-24T04:21:20;15.63;;;14.73;;
55465;SDS011;41329;41.594;23.810;2023-04-24T04:23:46;15.67;;;14.60;;
55465;SDS011;41329;41.594;23.810;2023-04-24T04:26:11;22.07;;;20.20;;
55465;SDS011;41329;41.594;23.810;2023-04-24T04:28:37;22.73;;;20.93;;
55465;SDS011;41329;41.594;23.810;2023-04-24T04:31:04;28.67;;;25.73;;
55465;SDS011;41329;41.594;23.810;2023-04-24T04:33:30;25.07;;;22.47;;
55465;SDS011;41329;41.594;23.810;2023-04-24T04:35:56;23.27;;;21.13;;
55465;SDS011;41329;41.594;23.810;2023-04-24T04:38:21;24.97;;;22.30;;
55465;SDS011;41329;41.594;23.810;2023-04-24T04:40:47;24.60;;;22.40;;
55465;SDS011;41329;41.594;23.810;2023-04-24T04:43:13;21.87;;;20.20;;
55465;SDS011;41329;41.594;23.810;2023-04-24T04:45:40;24.70;;;21.93;;
55465;SDS011;41329;41.594;23.810;2023-04-24T04:48:07;24.07;;;21.77;;
55465;SDS011;41329;41.594;23.810;2023-04-24T04:50:34;17.47;;;16.27;;
55465;SDS011;41329;41.594;23.810;2023-04-24T04:53:02;21.43;;;19.40;;
55465;SDS011;41329;41.594;23.810;2023-04-24T04:55:27;16.80;;;15.57;;
55465;SDS011;41329;41.594;23.810;2023-04-24T04:57:53;16.57;;;15.37;;
55465;SDS011;41329;41.594;23.810;2023-04-24T05:00:20;14.97;;;14.17;;
55465;SDS011;41329;41.594;23.810;2023-04-24T05:02:46;15.13;;;13.93;;
55465;SDS011;41329;41.594;23.810;2023-04-24T05:05:11;125.50;;;61.10;;
55465;SDS011;41329;41.594;23.810;2023-04-24T05:07:38;26.00;;;23.23;;
55465;SDS011;41329;41.594;23.810;2023-04-24T05:10:03;49.13;;;37.00;;
55465;SDS011;41329;41.594;23.810;2023-04-24T05:12:29;56.93;;;42.77;;
55465;SDS011;41329;41.594;23.810;2023-04-24T05:14:55;75.10;;;52.93;;
55465;SDS011;41329;41.594;23.810;2023-04-24T05:17:20;29.07;;;26.33;;
55465;SDS011;41329;41.594;23.810;2023-04-24T05:19:45;20.03;;;18.53;;
55465;SDS011;41329;41.594;23.810;2023-04-24T05:22:11;47.57;;;31.23;;
55465;SDS011;41329;41.594;23.810;2023-04-24T05:24:36;32.47;;;28.97;;
55465;SDS011;41329;41.594;23.810;2023-04-24T05:27:02;27.10;;;24.23;;
55465;SDS011;41329;41.594;23.810;2023-04-24T05:29:32;24.27;;;21.73;;
55465;SDS011;41329;41.594;23.810;2023-04-24T05:31:58;24.57;;;22.30;;
55465;SDS011;41329;41.594;23.810;2023-04-24T05:34:23;20.07;;;18.47;;
55465;SDS011;41329;41.594;23.810;2023-04-24T05:36:49;21.80;;;19.77;;
55465;SDS011;41329;41.594;23.810;2023-04-24T05:39:15;19.20;;;17.33;;
55465;SDS011;41329;41.594;23.810;2023-04-24T05:41:41;17.13;;;15.70;;
55465;SDS011;41329;41.594;23.810;2023-04-24T05:44:07;17.87;;;16.37;;
55465;SDS011;41329;41.594;23.810;2023-04-24T05:46:32;16.27;;;15.27;;
55465;SDS011;41329;41.594;23.810;2023-04-24T05:48:58;18.20;;;16.10;;
55465;SDS011;41329;41.594;23.810;2023-04-24T05:51:23;18.90;;;17.50;;
55465;SDS011;41329;41.594;23.810;2023-04-24T05:53:49;27.57;;;22.23;;
55465;SDS011;41329;41.594;23.810;2023-04-24T05:56:14;27.67;;;24.97;;
55465;SDS011;41329;41.594;23.810;2023-04-24T05:58:40;29.50;;;26.73;;
55465;SDS011;41329;41.594;23.810;2023-04-24T06:01:06;20.83;;;19.10;;
55465;SDS011;41329;41.594;23.810;2023-04-24T06:03:31;19.90;;;18.23;;
55465;SDS011;41329;41.594;23.810;2023-04-24T06:05:57;22.00;;;20.40;;
55465;SDS011;41329;41.594;23.810;2023-04-24T06:08:23;20.03;;;18.23;;
55465;SDS011;41329;41.594;23.810;2023-04-24T06:10:48;18.77;;;17.30;;
55465;SDS011;41329;41.594;23.810;2023-04-24T06:13:14;20.63;;;19.27;;
55465;SDS011;41329;41.594;23.810;2023-04-24T06:15:40;15.90;;;14.80;;
55465;SDS011;41329;41.594;23.810;2023-04-24T06:18:05;16.07;;;14.97;;
55465;SDS011;41329;41.594;23.810;2023-04-24T06:20:31;15.53;;;14.10;;
55465;SDS011;41329;41.594;23.810;2023-04-24T06:22:56;16.17;;;14.77;;
55465;SDS011;41329;41.594;23.810;2023-04-24T06:25:24;16.67;;;15.43;;
55465;SDS011;41329;41.594;23.810;2023-04-24T06:27:51;17.97;;;16.43;;
55465;SDS011;41329;41.594;23.810;2023-04-24T06:30:17;17.53;;;16.13;;
55465;SDS011;41329;41.594;23.810;2023-04-24T06:32:42;15.73;;;14.83;;
55465;SDS011;41329;41.594;23.810;2023-04-24T06:35:07;18.47;;;17.07;;
55465;SDS011;41329;41.594;23.810;2023-04-24T06:37:34;18.90;;;17.23;;
55465;SDS011;41329;41.594;23.810;2023-04-24T06:40:00;17.87;;;16.53;;
55465;SDS011;41329;41.594;23.810;2023-04-24T06:42:25;14.43;;;13.33;;
55465;SDS011;41329;41.594;23.810;2023-04-24T06:44:51;11.03;;;10.07;;
55465;SDS011;41329;41.594;23.810;2023-04-24T06:47:16;21.23;;;19.07;;
55465;SDS011;41329;41.594;23.810;2023-04-24T06:49:42;13.67;;;12.93;;
55465;SDS011;41329;41.594;23.810;2023-04-24T06:52:07;11.07;;;10.47;;
55465;SDS011;41329;41.594;23.810;2023-04-24T06:54:33;16.33;;;15.23;;
55465;SDS011;41329;41.594;23.810;2023-04-24T06:57:00;11.33;;;10.63;;
55465;SDS011;41329;41.594;23.810;2023-04-24T06:59:26;9.57;;;8.93;;
55465;SDS011;41329;41.594;23.810;2023-04-24T07:01:52;9.13;;;8.57;;
55465;SDS011;41329;41.594;23.810;2023-04-24T07:04:18;9.60;;;8.73;;
55465;SDS011;41329;41.594;23.810;2023-04-24T07:06:44;9.37;;;8.77;;
55465;SDS011;41329;41.594;23.810;2023-04-24T07:09:11;10.20;;;9.70;;
55465;SDS011;41329;41.594;23.810;2023-04-24T07:11:38;9.50;;;8.90;;
55465;SDS011;41329;41.594;23.810;2023-04-24T07:14:05;8.73;;;8.13;;
55465;SDS011;41329;41.594;23.810;2023-04-24T07:16:31;9.00;;;8.50;;
55465;SDS011;41329;41.594;23.810;2023-04-24T07:18:56;9.00;;;8.47;;
55465;SDS011;41329;41.594;23.810;2023-04-24T07:21:22;9.20;;;8.60;;
55465;SDS011;41329;41.594;23.810;2023-04-24T07:23:47;9.50;;;8.77;;
55465;SDS011;41329;41.594;23.810;2023-04-24T07:26:13;11.03;;;10.50;;
55465;SDS011;41329;41.594;23.810;2023-04-24T07:28:40;7.90;;;7.40;;
55465;SDS011;41329;41.594;23.810;2023-04-24T07:31:05;10.87;;;8.53;;
55465;SDS011;41329;41.594;23.810;2023-04-24T07:33:31;9.03;;;8.13;;
55465;SDS011;41329;41.594;23.810;2023-04-24T07:35:56;9.07;;;8.57;;
55465;SDS011;41329;41.594;23.810;2023-04-24T07:38:22;9.30;;;8.70;;
55465;SDS011;41329;41.594;23.810;2023-04-24T07:40:48;8.17;;;7.67;;
55465;SDS011;41329;41.594;23.810;2023-04-24T07:43:14;10.00;;;9.03;;
55465;SDS011;41329;41.594;23.810;2023-04-24T07:45:39;7.87;;;7.47;;
55465;SDS011;41329;41.594;23.810;2023-04-24T07:48:05;10.43;;;9.63;;
55465;SDS011;41329;41.594;23.810;2023-04-24T07:50:31;7.00;;;6.50;;
55465;SDS011;41329;41.594;23.810;2023-04-24T07:52:57;6.87;;;6.47;;
55465;SDS011;41329;41.594;23.810;2023-04-24T07:55:22;8.83;;;8.17;;
55465;SDS011;41329;41.594;23.810;2023-04-24T07:57:48;7.10;;;6.60;;
55465;SDS011;41329;41.594;23.810;2023-04-24T08:00:13;9.20;;;8.60;;
55465;SDS011;41329;41.594;23.810;2023-04-24T08:02:39;8.13;;;7.63;;
55465;SDS011;41329;41.594;23.810;2023-04-24T08:05:05;8.00;;;7.47;;
55465;SDS011;41329;41.594;23.810;2023-04-24T08:07:31;9.60;;;8.90;;
55465;SDS011;41329;41.594;23.810;2023-04-24T08:09:57;8.07;;;7.60;;
55465;SDS011;41329;41.594;23.810;2023-04-24T08:12:22;7.43;;;6.93;;
55465;SDS011;41329;41.594;23.810;2023-04-24T08:14:48;7.10;;;6.50;;
55465;SDS011;41329;41.594;23.810;2023-04-24T08:17:13;8.37;;;7.67;;
55465;SDS011;41329;41.594;23.810;2023-04-24T08:19:39;6.55;;;6.15;;
55465;SDS011;41329;41.594;23.810;2023-04-24T08:22:12;6.90;;;6.47;;
55465;SDS011;41329;41.594;23.810;2023-04-24T08:24:38;5.15;;;4.85;;
55465;SDS011;41329;41.594;23.810;2023-04-24T08:27:03;5.57;;;5.28;;
55465;SDS011;41329;41.594;23.810;2023-04-24T08:29:29;5.78;;;5.47;;
55465;SDS011;41329;41.594;23.810;2023-04-24T08:31:54;5.93;;;5.50;;
55465;SDS011;41329;41.594;23.810;2023-04-24T08:34:20;6.20;;;5.80;;
55465;SDS011;41329;41.594;23.810;2023-04-24T08:36:46;5.60;;;5.30;;
55465;SDS011;41329;41.594;23.810;2023-04-24T08:39:12;5.30;;;4.90;;
55465;SDS011;41329;41.594;23.810;2023-04-24T08:41:37;5.57;;;5.18;;
55465;SDS011;41329;41.594;23.810;2023-04-24T08:44:04;5.38;;;5.07;;
55465;SDS011;41329;41.594;23.810;2023-04-24T08:46:30;5.65;;;5.35;;
55465;SDS011;41329;41.594;23.810;2023-04-24T08:48:56;5.25;;;4.95;;
55465;SDS011;41329;41.594;23.810;2023-04-24T08:51:23;6.03;;;4.55;;
55465;SDS011;41329;41.594;23.810;2023-04-24T08:53:53;6.40;;;5.75;;
55465;SDS011;41329;41.594;23.810;2023-04-24T08:56:20;6.03;;;5.65;;
55465;SDS011;41329;41.594;23.810;2023-04-24T08:58:48;5.82;;;5.43;;
55465;SDS011;41329;41.594;23.810;2023-04-24T09:01:15;5.50;;;4.90;;
55465;SDS011;41329;41.594;23.810;2023-04-24T09:03:42;6.07;;;5.57;;
55465;SDS011;41329;41.594;23.810;2023-04-24T09:06:08;6.47;;;5.20;;
55465;SDS011;41329;41.594;23.810;2023-04-24T09:08:35;5.93;;;5.53;;
55465;SDS011;41329;41.594;23.810;2023-04-24T09:11:01;5.97;;;5.63;;
55465;SDS011;41329;41.594;23.810;2023-04-24T09:13:28;7.82;;;5.45;;
55465;SDS011;41329;41.594;23.810;2023-04-24T09:15:55;12.52;;;5.28;;
55465;SDS011;41329;41.594;23.810;2023-04-24T09:18:22;5.38;;;4.95;;
55465;SDS011;41329;41.594;23.810;2023-04-24T09:21:04;7.45;;;4.85;;
55465;SDS011;41329;41.594;23.810;2023-04-24T09:23:33;4.60;;;4.30;;
55465;SDS011;41329;41.594;23.810;2023-04-24T09:26:00;5.10;;;4.70;;
55465;SDS011;41329;41.594;23.810;2023-04-24T09:28:34;4.40;;;4.20;;
55465;SDS011;41329;41.594;23.810;2023-04-24T09:31:02;4.90;;;4.60;;
55465;SDS011;41329;41.594;23.810;2023-04-24T09:33:38;4.50;;;4.30;;
55465;SDS011;41329;41.594;23.810;2023-04-24T09:36:04;4.95;;;4.53;;
55465;SDS011;41329;41.594;23.810;2023-04-24T09:38:37;4.28;;;3.85;;
55465;SDS011;41329;41.594;23.810;2023-04-24T09:41:04;4.43;;;4.13;;
55465;SDS011;41329;41.594;23.810;2023-04-24T09:43:32;5.78;;;5.38;;
55465;SDS011;41329;41.594;23.810;2023-04-24T09:45:58;4.82;;;4.53;;
55465;SDS011;41329;41.594;23.810;2023-04-24T09:48:33;4.43;;;4.22;;
55465;SDS011;41329;41.594;23.810;2023-04-24T09:51:00;3.95;;;3.65;;
55465;SDS011;41329;41.594;23.810;2023-04-24T09:53:26;5.10;;;4.65;;
55465;SDS011;41329;41.594;23.810;2023-04-24T09:55:52;4.90;;;4.60;;
55465;SDS011;41329;41.594;23.810;2023-04-24T09:58:18;4.72;;;4.50;;
55465;SDS011;41329;41.594;23.810;2023-04-24T10:00:53;4.10;;;3.80;;
55465;SDS011;41329;41.594;23.810;2023-04-24T10:03:19;5.22;;;3.65;;
55465;SDS011;41329;41.594;23.810;2023-04-24T10:05:45;4.07;;;3.75;;
55465;SDS011;41329;41.594;23.810;2023-04-24T10:08:12;4.63;;;4.32;;
55465;SDS011;41329;41.594;23.810;2023-04-24T10:10:42;6.38;;;3.88;;
55465;SDS011;41329;41.594;23.810;2023-04-24T10:13:10;4.10;;;3.78;;
55465;SDS011;41329;41.594;23.810;2023-04-24T10:15:36;4.03;;;3.72;;
55465;SDS011;41329;41.594;23.810;2023-04-24T10:18:04;4.50;;;4.20;;
55465;SDS011;41329;41.594;23.810;2023-04-24T10:20:31;4.40;;;4.00;;
55465;SDS011;41329;41.594;23.810;2023-04-24T10:22:58;4.32;;;4.03;;
55465;SDS011;41329;41.594;23.810;2023-04-24T10:25:25;4.05;;;3.75;;
55465;SDS011;41329;41.594;23.810;2023-04-24T10:27:52;4.05;;;3.72;;
55465;SDS011;41329;41.594;23.810;2023-04-24T10:30:19;4.10;;;3.88;;
55465;SDS011;41329;41.594;23.810;2023-04-24T10:32:45;3.90;;;3.67;;
55465;SDS011;41329;41.594;23.810;2023-04-24T10:35:11;5.03;;;4.07;;
55465;SDS011;41329;41.594;23.810;2023-04-24T10:37:54;3.80;;;3.55;;
55465;SDS011;41329;41.594;23.810;2023-04-24T10:40:49;3.72;;;3.53;;
55465;SDS011;41329;41.594;23.810;2023-04-24T10:43:16;3.70;;;3.50;;
55465;SDS011;41329;41.594;23.810;2023-04-24T10:45:42;3.75;;;3.42;;
55465;SDS011;41329;41.594;23.810;2023-04-24T10:48:26;4.10;;;3.80;;
55465;SDS011;41329;41.594;23.810;2023-04-24T10:50:52;3.88;;;3.58;;
55465;SDS011;41329;41.594;23.810;2023-04-24T10:53:19;4.30;;;4.00;;
55465;SDS011;41329;41.594;23.810;2023-04-24T10:55:49;3.58;;;3.38;;
55465;SDS011;41329;41.594;23.810;2023-04-24T10:58:41;5.05;;;2.95;;
55465;SDS011;41329;41.594;23.810;2023-04-24T11:01:24;3.77;;;3.47;;
55465;SDS011;41329;41.594;23.810;2023-04-24T11:04:09;3.88;;;3.60;;
55465;SDS011;41329;41.594;23.810;2023-04-24T11:06:41;3.55;;;3.28;;
55465;SDS011;41329;41.594;23.810;2023-04-24T11:09:09;3.63;;;3.42;;
55465;SDS011;41329;41.594;23.810;2023-04-24T11:11:37;3.67;;;2.93;;
55465;SDS011;41329;41.594;23.810;2023-04-24T11:14:09;2.90;;;2.70;;
55465;SDS011;41329;41.594;23.810;2023-04-24T11:16:44;3.65;;;2.78;;
55465;SDS011;41329;41.594;23.810;2023-04-24T11:21:46;3.20;;;3.00;;
55465;SDS011;41329;41.594;23.810;2023-04-24T11:26:50;3.42;;;3.10;;
55465;SDS011;41329;41.594;23.810;2023-04-24T11:29:17;4.25;;;2.90;;
55465;SDS011;41329;41.594;23.810;2023-04-24T11:31:45;2.58;;;2.45;;
55465;SDS011;41329;41.594;23.810;2023-04-24T11:34:16;4.70;;;3.05;;
55465;SDS011;41329;41.594;23.810;2023-04-24T11:36:43;3.80;;;3.00;;
55465;SDS011;41329;41.594;23.810;2023-04-24T11:39:09;4.57;;;3.03;;
55465;SDS011;41329;41.594;23.810;2023-04-24T11:41:36;3.05;;;2.83;;
55465;SDS011;41329;41.594;23.810;2023-04-24T11:44:02;4.68;;;2.97;;
55465;SDS011;41329;41.594;23.810;2023-04-24T11:46:30;2.97;;;2.78;;
55465;SDS011;41329;41.594;23.810;2023-04-24T11:48:57;2.75;;;2.55;;
55465;SDS011;41329;41.594;23.810;2023-04-24T11:51:24;2.88;;;2.53;;
55465;SDS011;41329;41.594;23.810;2023-04-24T11:53:53;6.38;;;2.78;;
55465;SDS011;41329;41.594;23.810;2023-04-24T11:56:23;2.90;;;2.63;;
55465;SDS011;41329;41.594;23.810;2023-04-24T11:58:51;3.53;;;2.40;;
55465;SDS011;41329;41.594;23.810;2023-04-24T12:01:19;2.53;;;2.33;;
55465;SDS011;41329;41.594;23.810;2023-04-24T12:03:48;2.15;;;2.05;;
55465;SDS011;41329;41.594;23.810;2023-04-24T12:06:15;2.15;;;2.05;;
55465;SDS011;41329;41.594;23.810;2023-04-24T12:08:41;2.28;;;2.17;;
55465;SDS011;41329;41.594;23.810;2023-04-24T12:11:07;4.32;;;2.17;;
55465;SDS011;41329;41.594;23.810;2023-04-24T12:13:33;2.45;;;2.25;;
55465;SDS011;41329;41.594;23.810;2023-04-24T12:16:01;2.60;;;1.95;;
55465;SDS011;41329;41.594;23.810;2023-04-24T12:18:28;2.83;;;1.92;;
55465;SDS011;41329;41.594;23.810;2023-04-24T12:20:54;2.13;;;1.60;;
55465;SDS011;41329;41.594;23.810;2023-04-24T12:23:35;1.58;;;1.48;;
55465;SDS011;41329;41.594;23.810;2023-04-24T12:26:03;1.90;;;1.80;;
55465;SDS011;41329;41.594;23.810;2023-04-24T12:28:36;5.32;;;2.22;;
55465;SDS011;41329;41.594;23.810;2023-04-24T12:31:02;2.47;;;2.28;;
55465;SDS011;41329;41.594;23.810;2023-04-24T12:33:31;1.92;;;1.77;;
55465;SDS011;41329;41.594;23.810;2023-04-24T12:35:59;3.72;;;1.77;;
55465;SDS011;41329;41.594;23.810;2023-04-24T12:38:25;2.25;;;2.00;;
55465;SDS011;41329;41.594;23.810;2023-04-24T12:41:09;2.22;;;1.83;;
55465;SDS011;41329;41.594;23.810;2023-04-24T12:43:38;1.90;;;1.80;;
55465;SDS011;41329;41.594;23.810;2023-04-24T12:46:16;2.33;;;2.22;;
55465;SDS011;41329;41.594;23.810;2023-04-24T12:48:41;2.58;;;2.03;;
55465;SDS011;41329;41.594;23.810;2023-04-24T12:51:07;3.05;;;2.17;;
55465;SDS011;41329;41.594;23.810;2023-04-24T12:53:32;2.92;;;1.83;;
55465;SDS011;41329;41.594;23.810;2023-04-24T12:55:58;4.32;;;1.90;;
55465;SDS011;41329;41.594;23.810;2023-04-24T12:58:26;2.20;;;2.00;;
55465;SDS011;41329;41.594;23.810;2023-04-24T13:00:52;2.05;;;1.90;;
55465;SDS011;41329;41.594;23.810;2023-04-24T13:03:17;3.47;;;2.30;;
55465;SDS011;41329;41.594;23.810;2023-04-24T13:05:43;2.45;;;2.05;;
55465;SDS011;41329;41.594;23.810;2023-04-24T13:08:09;2.83;;;1.65;;
55465;SDS011;41329;41.594;23.810;2023-04-24T13:10:34;2.05;;;1.63;;
55465;SDS011;41329;41.594;23.810;2023-04-24T13:13:00;1.60;;;1.50;;
55465;SDS011;41329;41.594;23.810;2023-04-24T13:15:25;1.73;;;1.52;;
55465;SDS011;41329;41.594;23.810;2023-04-24T13:17:51;1.75;;;1.65;;
55465;SDS011;41329;41.594;23.810;2023-04-24T13:20:17;2.50;;;1.40;;
55465;SDS011;41329;41.594;23.810;2023-04-24T13:22:42;2.88;;;2.20;;
55465;SDS011;41329;41.594;23.810;2023-04-24T13:25:08;1.70;;;1.60;;
55465;SDS011;41329;41.594;23.810;2023-04-24T13:27:34;6.68;;;2.33;;
55465;SDS011;41329;41.594;23.810;2023-04-24T13:29:59;3.60;;;2.38;;
55465;SDS011;41329;41.594;23.810;2023-04-24T13:32:25;4.10;;;2.20;;
55465;SDS011;41329;41.594;23.810;2023-04-24T13:34:51;2.25;;;1.92;;
55465;SDS011;41329;41.594;23.810;2023-04-24T13:37:16;2.75;;;1.95;;
55465;SDS011;41329;41.594;23.810;2023-04-24T13:39:42;3.25;;;2.20;;
55465;SDS011;41329;41.594;23.810;2023-04-24T13:42:08;2.55;;;2.35;;
55465;SDS011;41329;41.594;23.810;2023-04-24T13:44:33;2.00;;;1.75;;
55465;SDS011;41329;41.594;23.810;2023-04-24T13:46:59;2.13;;;1.80;;
55465;SDS011;41329;41.594;23.810;2023-04-24T13:49:25;2.47;;;2.33;;
55465;SDS011;41329;41.594;23.810;2023-04-24T13:51:51;3.90;;;1.80;;
55465;SDS011;41329;41.594;23.810;2023-04-24T13:54:18;2.75;;;1.70;;
55465;SDS011;41329;41.594;23.810;2023-04-24T13:56:43;3.85;;;2.42;;
55465;SDS011;41329;41.594;23.810;2023-04-24T13:59:09;2.42;;;2.33;;
55465;SDS011;41329;41.594;23.810;2023-04-24T14:01:34;2.53;;;2.28;;
55465;SDS011;41329;41.594;23.810;2023-04-24T14:04:00;3.35;;;2.67;;
55465;SDS011;41329;41.594;23.810;2023-04-24T14:06:25;2.40;;;2.20;;
55465;SDS011;41329;41.594;23.810;2023-04-24T14:08:51;3.10;;;2.80;;
55465;SDS011;41329;41.594;23.810;2023-04-24T14:11:17;3.85;;;2.28;;
55465;SDS011;41329;41.594;23.810;2023-04-24T14:13:44;2.67;;;2.47;;
55465;SDS011;41329;41.594;23.810;2023-04-24T14:16:10;2.60;;;2.40;;
55465;SDS011;41329;41.594;23.810;2023-04-24T14:18:36;4.35;;;2.17;;
55465;SDS011;41329;41.594;23.810;2023-04-24T14:21:02;3.08;;;2.47;;
55465;SDS011;41329;41.594;23.810;2023-04-24T14:23:28;2.50;;;2.00;;
55465;SDS011;41329;41.594;23.810;2023-04-24T14:25:54;2.20;;;2.10;;
55465;SDS011;41329;41.594;23.810;2023-04-24T14:28:19;3.25;;;2.20;;
55465;SDS011;41329;41.594;23.810;2023-04-24T14:30:46;3.60;;;1.92;;